Terminal Aerodrome Forecast
Issued by NWS

Home | Current Version | Previous Version | Text Only | Print | Product List | Glossary On
Versions: 1 2 3 4 5 6 7 8 9 10 11 12 13 14
035
FTUS43 KABR 162320
TAFATY
TAF
KATY 162320Z 1700/1724 01003KT P6SM SKC
     FM170100 34005KT 5SM BR FEW120
     FM170800 31004KT 6SM BR FEW120
     FM170900 31004KT 5SM BR FEW150
     FM171500 25005KT P6SM FEW100=

USA.gov is the U.S. government's official web portal to all federal, state and local government web resources and services.